Time;durP1;ratioP1;P1;durP2;ratioP2;P2;SDS_P1;SDS_P2;PMS_P1;PMS_P2;Temp;Humidity;BMP_temperature;BMP_pressure;BME280_temperature;BME280_humidity;BME280_pressure;Samples;Min_cycle;Max_cycle;Signal;HPM_P1;HPM_P2
2022/09/27 00:01:02;;;;;;;4.50;4.10;;;;;;;9.76;100.00;95386.38;5026497;28;20231;-58
2022/09/27 00:03:31;;;;;;;4.20;3.80;;;;;;;9.74;100.00;95385.78;5024271;28;20290;-59
2022/09/27 00:06:04;;;;;;;4.10;3.80;;;;;;;9.80;100.00;95377.78;5005428;28;20309;-53
2022/09/27 00:08:34;;;;;;;4.23;4.00;;;;;;;9.72;100.00;95370.16;5004005;28;20683;-61
2022/09/27 00:11:03;;;;;;;6.40;3.97;;;;;;;9.77;100.00;95378.22;5008474;28;20208;-58
2022/09/27 00:13:31;;;;;;;4.30;3.90;;;;;;;9.82;100.00;95373.06;4964869;28;20303;-56
2022/09/27 00:16:03;;;;;;;5.57;4.20;;;;;;;9.81;100.00;95357.41;5020677;28;20312;-58
2022/09/27 00:18:33;;;;;;;4.37;4.00;;;;;;;9.80;100.00;95361.09;5028345;28;20203;-54
2022/09/27 00:21:06;;;;;;;4.03;3.73;;;;;;;9.83;100.00;95358.81;5020080;28;20215;-57
2022/09/27 00:23:35;;;;;;;4.13;3.83;;;;;;;9.85;100.00;95359.38;5026512;28;20503;-58
2022/09/27 00:26:04;;;;;;;4.27;3.97;;;;;;;9.88;100.00;95344.09;5018924;28;21305;-57
2022/09/27 00:28:33;;;;;;;4.00;3.70;;;;;;;9.86;100.00;95352.28;4979589;28;20216;-59
2022/09/27 00:31:02;;;;;;;3.67;3.30;;;;;;;9.83;100.00;95337.66;5019645;28;20298;-60
2022/09/27 00:33:30;;;;;;;4.37;3.97;;;;;;;9.83;100.00;95335.00;5025700;28;20207;-59
2022/09/27 00:36:04;;;;;;;3.97;3.67;;;;;;;9.84;100.00;95336.63;5005280;28;20238;-57
2022/09/27 00:38:33;;;;;;;4.10;3.80;;;;;;;9.74;100.00;95339.00;5022646;28;20683;-60
2022/09/27 00:41:02;;;;;;;6.33;5.03;;;;;;;9.73;100.00;95340.03;5021919;28;20208;-59
2022/09/27 00:43:44;;;;;;;3.87;3.50;;;;;;;9.75;100.00;95330.03;4975020;28;20237;-55
2022/09/27 00:46:17;;;;;;;3.90;3.50;;;;;;;9.75;100.00;95330.03;5017453;28;20456;-58
2022/09/27 00:48:46;;;;;;;5.87;4.00;;;;;;;9.76;100.00;95334.28;5026186;28;20242;-56
2022/09/27 00:51:15;;;;;;;3.63;3.33;;;;;;;9.74;100.00;95331.06;5018275;28;20406;-56
2022/09/27 00:53:50;;;;;;;5.53;3.83;;;;;;;9.68;100.00;95324.03;5025177;28;20546;-60
2022/09/27 00:56:24;;;;;;;4.33;3.87;;;;;;;9.60;100.00;95324.31;5021652;28;20262;-60
2022/09/27 00:58:55;;;;;;;3.80;3.50;;;;;;;9.58;100.00;95323.75;4972077;28;20303;-59
2022/09/27 01:01:24;;;;;;;3.93;3.63;;;;;;;9.60;100.00;95322.50;5019736;28;20561;-60
2022/09/27 01:03:56;;;;;;;4.17;3.77;;;;;;;9.58;100.00;95323.75;5020962;28;20694;-56
2022/09/27 01:06:25;;;;;;;4.17;3.60;;;;;;;9.51;100.00;95322.00;5023788;28;21136;-59
2022/09/27 01:08:53;;;;;;;3.57;3.27;;;;;;;9.50;100.00;95320.38;5024345;28;20307;-58
2022/09/27 01:11:32;;;;;;;3.97;3.60;;;;;;;9.44;100.00;95313.34;5022090;28;20304;-61
2022/09/27 01:14:22;;;;;;;4.60;3.30;;;;;;;9.49;100.00;95316.13;4967247;28;20306;-62
2022/09/27 01:17:00;;;;;;;7.03;3.37;;;;;;;9.40;100.00;95312.97;5015368;28;20315;-60
2022/09/27 01:19:46;;;;;;;4.20;3.90;;;;;;;9.39;100.00;95308.72;5014944;28;20306;-62
2022/09/27 01:22:16;;;;;;;3.90;3.60;;;;;;;9.37;100.00;95309.97;5021631;28;20401;-61
2022/09/27 01:25:06;;;;;;;4.37;3.37;;;;;;;9.32;100.00;95313.28;5027509;28;20741;-59
2022/09/27 01:28:15;;;;;;;3.37;3.07;;;;;;;9.29;100.00;95312.94;5024671;28;20585;-58
2022/09/27 01:30:48;;;;;;;3.33;3.07;;;;;;;9.24;100.00;95309.09;4965014;28;20527;-59
2022/09/27 01:33:31;;;;;;;3.63;3.43;;;;;;;9.22;100.00;95302.44;5018480;28;20708;-62
2022/09/27 01:36:08;;;;;;;3.30;3.07;;;;;;;9.19;100.00;95308.97;5021714;28;20255;-59
2022/09/27 01:38:42;;;;;;;3.73;3.27;;;;;;;9.25;100.00;95308.06;5023253;28;20791;-57
2022/09/27 01:41:18;;;;;;;3.00;2.90;;;;;;;9.20;100.00;95299.22;5024606;28;20495;-55
2022/09/27 01:43:51;;;;;;;4.53;3.33;;;;;;;9.14;100.00;95300.88;5021548;28;20294;-58
2022/09/27 01:46:24;;;;;;;3.33;3.13;;;;;;;9.15;100.00;95297.22;4970140;28;20228;-61
2022/09/27 01:48:54;;;;;;;3.13;2.93;;;;;;;9.18;100.00;95295.97;5023309;28;20235;-58
2022/09/27 01:51:26;;;;;;;3.50;3.20;;;;;;;9.25;100.00;95294.06;5029855;28;21241;-62
2022/09/27 01:53:57;;;;;;;2.87;2.77;;;;;;;9.13;100.00;95294.00;5021748;28;20235;-60
2022/09/27 01:56:28;;;;;;;2.73;2.63;;;;;;;9.08;100.00;95289.34;5030858;28;20306;-53
2022/09/27 01:58:59;;;;;;;3.20;2.90;;;;;;;9.19;100.00;95292.31;5029294;28;20258;-58
2022/09/27 02:01:30;;;;;;;3.00;2.90;;;;;;;9.09;100.00;95285.72;4976030;28;20695;-60
2022/09/27 02:04:00;;;;;;;2.90;2.67;;;;;;;9.07;100.00;95279.81;5021408;28;20207;-59
2022/09/27 02:06:31;;;;;;;2.80;2.60;;;;;;;9.07;100.00;95284.31;5025774;28;20230;-59
2022/09/27 02:09:03;;;;;;;2.93;2.73;;;;;;;9.02;100.00;95276.25;5023002;28;20325;-58
2022/09/27 02:11:31;;;;;;;3.27;3.07;;;;;;;8.97;100.00;95272.44;5029791;28;20609;-58
2022/09/27 02:14:03;;;;;;;3.23;2.80;;;;;;;8.95;100.00;95274.50;5023802;28;20770;-59
2022/09/27 02:16:40;;;;;;;3.40;3.00;;;;;;;8.93;100.00;95255.41;4975682;28;20263;-57
2022/09/27 02:19:13;;;;;;;3.27;3.07;;;;;;;8.92;100.00;95261.72;5004925;28;20297;-61
2022/09/27 02:21:53;;;;;;;3.23;2.90;;;;;;;8.97;100.00;95268.97;4983843;28;20266;-56
2022/09/27 02:24:27;;;;;;;3.73;3.30;;;;;;;8.93;100.00;95270.44;5023557;28;20221;-57
2022/09/27 02:27:00;;;;;;;2.77;2.57;;;;;;;8.96;100.00;95270.00;5009373;28;20537;-60
2022/09/27 02:29:33;;;;;;;3.17;2.97;;;;;;;8.91;100.00;95264.59;5026972;28;20299;-59
2022/09/27 02:32:02;;;;;;;3.20;3.00;;;;;;;8.79;100.00;95253.94;5027115;28;20203;-59
2022/09/27 02:34:33;;;;;;;2.70;2.50;;;;;;;8.82;100.00;95262.25;4945443;28;20853;-62
2022/09/27 02:37:01;;;;;;;3.00;2.80;;;;;;;8.82;100.00;95256.13;5031284;28;20324;-61
2022/09/27 02:39:29;;;;;;;2.50;2.40;;;;;;;8.76;100.00;95255.19;5024320;28;20510;-59
2022/09/27 02:41:58;;;;;;;3.77;3.00;;;;;;;8.88;100.00;95268.47;5005557;28;20241;-60
2022/09/27 02:44:27;;;;;;;2.80;2.60;;;;;;;8.87;100.00;95268.69;5028205;28;20211;-61
2022/09/27 02:47:14;;;;;;;3.07;2.87;;;;;;;8.81;100.00;95265.91;5030962;28;20204;-63
2022/09/27 02:49:54;;;;;;;3.20;2.87;;;;;;;8.77;100.00;95256.00;4979459;28;21899;-59
2022/09/27 02:52:31;;;;;;;3.27;2.63;;;;;;;8.74;100.00;95259.91;5023313;28;20712;-53
2022/09/27 02:55:08;;;;;;;2.80;2.70;;;;;;;8.75;100.00;95255.41;5032692;28;20230;-60
2022/09/27 02:57:44;;;;;;;3.17;2.87;;;;;;;8.72;100.00;95256.66;5004507;28;20517;-62
2022/09/27 03:00:16;;;;;;;2.77;2.67;;;;;;;8.62;100.00;95240.50;5023672;28;20222;-58
2022/09/27 03:02:52;;;;;;;2.83;2.63;;;;;;;8.59;100.00;95251.50;5031636;28;20218;-60
2022/09/27 03:05:22;;;;;;;3.77;2.80;;;;;;;8.52;100.00;95231.28;4974499;28;20230;-62
2022/09/27 03:07:51;;;;;;;5.07;2.70;;;;;;;8.60;100.00;95239.91;5026288;28;20237;-61
2022/09/27 03:10:21;;;;;;;2.80;2.60;;;;;;;8.59;100.00;95244.41;5025568;28;20207;-62
2022/09/27 03:12:50;;;;;;;2.93;2.67;;;;;;;8.59;100.00;95240.94;5007065;28;20221;-61
2022/09/27 03:15:18;;;;;;;2.73;2.63;;;;;;;8.50;100.00;95243.88;5005496;28;20326;-59
2022/09/27 03:17:48;;;;;;;2.67;2.57;;;;;;;8.47;100.00;95238.19;5030287;28;20478;-58
2022/09/27 03:20:16;;;;;;;2.90;2.70;;;;;;;8.46;100.00;95231.31;4992576;28;20307;-62
2022/09/27 03:22:45;;;;;;;2.63;2.43;;;;;;;8.51;100.00;95245.50;5015206;28;20579;-59
2022/09/27 03:25:14;;;;;;;2.77;2.57;;;;;;;8.57;100.00;95249.09;5019138;28;20647;-58
2022/09/27 03:27:43;;;;;;;3.03;2.23;;;;;;;8.65;100.00;95235.59;5023059;28;20590;-62
2022/09/27 03:30:13;;;;;;;2.20;2.10;;;;;;;8.66;100.00;95241.69;5006571;28;20716;-62
2022/09/27 03:32:43;;;;;;;2.87;2.70;;;;;;;8.64;100.00;95235.81;4994959;28;20247;-61
2022/09/27 03:35:13;;;;;;;2.47;2.30;;;;;;;8.57;100.00;95232.44;5019251;28;20434;-62
2022/09/27 03:37:41;;;;;;;2.93;2.73;;;;;;;8.52;100.00;95233.09;4974278;28;20232;-60
2022/09/27 03:40:10;;;;;;;2.57;2.43;;;;;;;8.47;100.00;95240.84;5018389;28;20214;-56
2022/09/27 03:42:39;;;;;;;2.60;2.50;;;;;;;8.48;100.00;95231.88;5028588;28;20722;-61
2022/09/27 03:45:08;;;;;;;2.80;2.60;;;;;;;8.44;100.00;95233.34;4997997;28;20476;-61
2022/09/27 03:47:40;;;;;;;2.40;2.30;;;;;;;8.43;100.00;95215.91;5028932;28;20426;-63
2022/09/27 03:50:11;;;;;;;2.93;2.70;;;;;;;8.37;100.00;95215.75;5025896;28;20401;-61
2022/09/27 03:52:42;;;;;;;3.67;2.40;;;;;;;8.43;100.00;95202.72;4948277;28;20216;-64
2022/09/27 03:55:11;;;;;;;2.20;2.10;;;;;;;8.42;100.00;95214.28;5026834;28;20231;-63
2022/09/27 03:57:39;;;;;;;2.30;2.10;;;;;;;8.46;100.00;95211.00;5029337;28;20227;-60
2022/09/27 04:00:09;;;;;;;2.30;2.20;;;;;;;8.39;100.00;95213.72;4979300;28;21028;-63
2022/09/27 04:02:37;;;;;;;2.40;2.30;;;;;;;8.44;100.00;95212.25;5030413;28;20299;-65
2022/09/27 04:05:06;;;;;;;2.00;1.90;;;;;;;8.40;100.00;95211.88;4995993;28;20219;-64
2022/09/27 04:07:34;;;;;;;2.10;1.97;;;;;;;8.44;100.00;95206.97;4980185;28;20208;-56
2022/09/27 04:10:05;;;;;;;2.63;2.00;;;;;;;8.47;100.00;95204.69;5025399;28;20207;-61
2022/09/27 04:12:34;;;;;;;2.03;1.97;;;;;;;8.43;100.00;95200.06;5028011;28;20203;-57
2022/09/27 04:15:02;;;;;;;2.07;2.00;;;;;;;8.42;100.00;95194.00;4983241;28;20239;-60
2022/09/27 04:17:31;;;;;;;2.30;2.10;;;;;;;8.47;100.00;95186.22;4993597;28;20229;-61
2022/09/27 04:19:59;;;;;;;2.33;2.23;;;;;;;8.44;100.00;95191.13;5027973;28;20210;-61
2022/09/27 04:22:27;;;;;;;2.40;1.90;;;;;;;8.38;100.00;95198.09;4967890;28;20219;-62
2022/09/27 04:24:56;;;;;;;2.20;2.10;;;;;;;8.36;100.00;95200.94;5028219;28;20230;-61
2022/09/27 04:27:25;;;;;;;2.07;1.97;;;;;;;8.38;100.00;95195.47;4976389;28;20321;-59
2022/09/27 04:29:53;;;;;;;2.20;2.10;;;;;;;8.36;100.00;95194.88;5024494;28;20212;-63
2022/09/27 04:32:21;;;;;;;2.30;2.10;;;;;;;8.39;100.00;95194.44;5024283;28;20314;-64
2022/09/27 04:37:35;;;;;;;1.93;1.83;;;;;;;8.36;100.00;95200.16;5026479;28;20227;-61
2022/09/27 04:40:04;;;;;;;2.63;2.17;;;;;;;8.35;100.00;95198.53;4998232;28;21025;-59
2022/09/27 04:42:34;;;;;;;1.87;1.77;;;;;;;8.39;100.00;95203.16;5016572;28;20218;-63
2022/09/27 04:45:02;;;;;;;2.10;2.00;;;;;;;8.40;100.00;95211.88;4974584;28;20239;-62
2022/09/27 04:47:31;;;;;;;2.73;2.00;;;;;;;8.40;100.00;95204.75;5018884;28;20298;-63
2022/09/27 04:49:59;;;;;;;2.40;2.30;;;;;;;8.50;100.00;95211.38;5026526;28;20227;-64
2022/09/27 04:52:27;;;;;;;2.63;2.43;;;;;;;8.48;100.00;95202.84;5025815;28;20893;-62
2022/09/27 04:54:55;;;;;;;2.30;2.20;;;;;;;8.46;100.00;95205.72;5026885;28;20343;-62
2022/09/27 04:57:24;;;;;;;2.03;1.93;;;;;;;8.44;100.00;95199.03;5030286;28;20208;-62
2022/09/27 04:59:53;;;;;;;2.33;2.23;;;;;;;8.46;100.00;95199.63;4983043;28;20324;-61
2022/09/27 05:02:21;;;;;;;2.10;2.00;;;;;;;8.46;100.00;95207.56;5002601;28;20781;-62
2022/09/27 05:04:50;;;;;;;2.37;2.27;;;;;;;8.51;100.00;95202.44;5022699;28;20615;-63
2022/09/27 05:07:18;;;;;;;2.10;2.00;;;;;;;8.57;100.00;95208.69;5030166;28;20306;-64
2022/09/27 05:09:46;;;;;;;2.20;2.10;;;;;;;8.53;100.00;95205.69;4999087;28;20235;-56
2022/09/27 05:12:14;;;;;;;2.03;1.93;;;;;;;8.56;100.00;95207.06;5027676;28;20213;-61
2022/09/27 05:14:43;;;;;;;2.40;2.20;;;;;;;8.61;100.00;95220.41;4983170;28;20219;-65
2022/09/27 05:17:13;;;;;;;3.63;3.03;;;;;;;8.62;100.00;95220.22;4968545;28;20204;-62
2022/09/27 05:19:41;;;;;;;2.50;2.30;;;;;;;8.61;100.00;95223.88;5022601;28;20515;-55
2022/09/27 05:22:10;;;;;;;2.83;2.07;;;;;;;8.64;100.00;95223.44;5024803;28;20215;-59
2022/09/27 05:24:38;;;;;;;1.90;1.80;;;;;;;8.69;100.00;95222.75;5023240;28;20618;-62
2022/09/27 05:27:08;;;;;;;2.13;2.03;;;;;;;8.66;100.00;95221.38;5029777;28;20718;-63
2022/09/27 05:29:36;;;;;;;1.80;1.70;;;;;;;8.67;100.00;95220.34;5022859;28;20314;-58
2022/09/27 05:32:05;;;;;;;1.97;1.87;;;;;;;8.73;100.00;95217.84;4956279;28;21025;-59
2022/09/27 05:34:34;;;;;;;2.20;2.10;;;;;;;8.75;100.00;95219.25;5027807;28;20671;-60
2022/09/27 05:37:02;;;;;;;2.10;2.00;;;;;;;8.77;100.00;95217.22;5028090;28;20235;-62
2022/09/27 05:39:30;;;;;;;2.07;1.97;;;;;;;8.83;100.00;95218.13;5029465;28;20406;-57
2022/09/27 05:41:59;;;;;;;1.60;1.50;;;;;;;8.88;100.00;95209.56;5027191;28;20290;-58
2022/09/27 05:44:27;;;;;;;1.90;1.77;;;;;;;8.94;100.00;95213.94;5020852;28;20262;-57
2022/09/27 05:46:55;;;;;;;2.57;2.37;;;;;;;8.87;100.00;95213.22;4978271;28;20533;-60
2022/09/27 05:49:23;;;;;;;1.90;1.80;;;;;;;8.95;100.00;95219.03;5022702;28;20801;-57
2022/09/27 05:51:53;;;;;;;1.97;1.87;;;;;;;8.90;100.00;95226.81;5030818;28;20207;-62
2022/09/27 05:54:21;;;;;;;2.00;1.90;;;;;;;8.85;100.00;95231.94;5029769;28;20239;-61
2022/09/27 05:56:50;;;;;;;2.53;1.90;;;;;;;8.78;100.00;95245.22;5026042;28;20319;-60
2022/09/27 05:59:18;;;;;;;2.10;2.00;;;;;;;8.84;100.00;95243.50;5030935;28;20259;-60
2022/09/27 06:01:47;;;;;;;2.00;1.90;;;;;;;8.87;100.00;95243.06;5026242;28;20231;-61
2022/09/27 06:04:15;;;;;;;1.77;1.67;;;;;;;8.90;100.00;95245.31;4974547;28;20226;-60
2022/09/27 06:06:43;;;;;;;2.13;2.03;;;;;;;8.93;100.00;95241.41;5029680;28;20212;-55
2022/09/27 06:09:13;;;;;;;1.57;1.47;;;;;;;9.02;100.00;95241.91;5026208;28;20204;-60
2022/09/27 06:11:44;;;;;;;2.03;1.53;;;;;;;8.91;100.00;95238.16;5031362;28;20862;-62
2022/09/27 06:14:12;;;;;;;1.70;1.60;;;;;;;8.85;100.00;95237.22;5028564;28;20195;-59
2022/09/27 06:16:40;;;;;;;1.33;1.23;;;;;;;8.73;100.00;95241.63;5026476;28;20361;-63
2022/09/27 06:19:09;;;;;;;1.93;0.80;;;;;;;8.69;100.00;95244.69;4974263;28;20649;-60
2022/09/27 06:21:37;;;;;;;0.90;0.90;;;;;;;8.72;100.00;95245.28;5025632;28;20227;-56
2022/09/27 06:24:06;;;;;;;0.80;0.80;;;;;;;8.71;100.00;95255.03;5027124;28;20426;-63
2022/09/27 06:26:36;;;;;;;0.80;0.80;;;;;;;8.76;100.00;95254.38;5025943;28;20447;-59
2022/09/27 06:29:04;;;;;;;0.80;0.80;;;;;;;8.70;100.00;95258.69;5031656;28;20207;-63
2022/09/27 06:31:32;;;;;;;1.40;0.97;;;;;;;8.48;100.00;95263.56;5021129;28;20330;-59
2022/09/27 06:34:00;;;;;;;0.83;0.77;;;;;;;8.58;100.00;95276.28;4968149;28;23422;-61
2022/09/27 06:36:28;;;;;;;1.00;1.00;;;;;;;8.84;100.00;95269.94;5006003;28;20250;-61
2022/09/27 06:39:00;;;;;;;0.77;0.77;;;;;;;9.11;100.00;95273.09;5025054;28;20863;-60
2022/09/27 06:41:28;;;;;;;0.97;0.90;;;;;;;9.32;100.00;95275.50;5012918;28;20913;-60
2022/09/27 06:43:58;;;;;;;1.13;0.93;;;;;;;9.36;100.00;95268.72;5027382;28;20365;-56
2022/09/27 06:46:26;;;;;;;1.30;1.20;;;;;;;9.34;100.00;95273.44;5026579;28;20219;-61
2022/09/27 06:48:55;;;;;;;2.00;1.90;;;;;;;9.37;100.00;95280.91;4980637;28;20858;-64
2022/09/27 06:51:23;;;;;;;1.73;1.47;;;;;;;9.73;100.00;95283.69;5021096;28;20663;-63
2022/09/27 06:53:51;;;;;;;1.57;1.00;;;;;;;9.98;100.00;95278.22;5021131;28;20204;-62
2022/09/27 06:56:19;;;;;;;1.23;1.13;;;;;;;10.25;100.00;95278.63;5028743;28;20310;-63
2022/09/27 07:01:35;;;;;;;3.80;1.00;;;;;;;10.62;100.00;95282.91;5030598;28;20210;-62
2022/09/27 07:04:04;;;;;;;1.00;1.00;;;;;;;10.61;100.00;95283.97;5021115;28;20402;-60
2022/09/27 07:06:34;;;;;;;1.47;0.90;;;;;;;10.45;100.00;95277.50;4976641;28;20623;-61
2022/09/27 07:09:02;;;;;;;1.03;1.00;;;;;;;10.51;100.00;95281.88;5023860;28;20427;-57
2022/09/27 07:11:31;;;;;;;0.60;0.60;;;;;;;10.55;100.00;95287.53;5027224;28;20295;-62
2022/09/27 07:14:00;;;;;;;5.00;1.10;;;;;;;10.50;100.00;95290.06;5011122;28;20730;-61
2022/09/27 07:16:29;;;;;;;1.43;0.90;;;;;;;10.51;100.00;95294.31;5025544;28;20250;-59
2022/09/27 07:18:58;;;;;;;2.30;1.13;;;;;;;10.56;100.00;95299.72;5025169;28;20235;-61
2022/09/27 07:21:26;;;;;;;2.20;1.03;;;;;;;10.54;100.00;95292.00;4976270;28;20234;-62
2022/09/27 07:23:54;;;;;;;0.90;0.90;;;;;;;10.27;100.00;95303.03;5021618;28;20199;-57
2022/09/27 07:26:22;;;;;;;1.20;1.17;;;;;;;10.28;100.00;95309.13;5026765;28;20226;-57
2022/09/27 07:28:52;;;;;;;0.93;0.93;;;;;;;10.32;100.00;95309.47;5009070;28;20297;-58
2022/09/27 07:31:20;;;;;;;1.67;1.13;;;;;;;10.18;100.00;95320.25;5023487;28;20208;-61
2022/09/27 07:33:48;;;;;;;1.30;0.87;;;;;;;10.33;100.00;95314.53;5022354;28;20205;-60
2022/09/27 07:36:18;;;;;;;0.83;0.77;;;;;;;10.27;100.00;95316.25;4973644;28;20227;-60
2022/09/27 07:38:46;;;;;;;1.13;1.07;;;;;;;9.92;100.00;95321.47;5019631;28;20205;-60
2022/09/27 07:41:15;;;;;;;2.93;1.00;;;;;;;9.84;100.00;95320.75;5022661;28;20203;-59
2022/09/27 07:43:44;;;;;;;0.90;0.90;;;;;;;9.96;100.00;95325.25;5015759;28;20203;-62
2022/09/27 07:46:13;;;;;;;1.13;1.00;;;;;;;10.03;100.00;95328.59;5022984;28;20223;-55
2022/09/27 07:48:41;;;;;;;0.80;0.80;;;;;;;9.83;100.00;95319.13;5021196;28;20666;-59
2022/09/27 07:51:10;;;;;;;1.37;0.63;;;;;;;9.74;100.00;95333.72;4980083;28;20216;-60
2022/09/27 07:53:40;;;;;;;1.00;1.00;;;;;;;9.76;100.00;95329.00;5023230;28;20294;-59
2022/09/27 07:56:08;;;;;;;0.50;0.50;;;;;;;9.88;100.00;95315.00;5020576;28;20224;-64
2022/09/27 07:58:36;;;;;;;1.37;1.27;;;;;;;10.05;100.00;95323.94;5028850;28;20214;-59
2022/09/27 08:01:05;;;;;;;2.33;1.00;;;;;;;10.46;100.00;95328.63;5008346;28;20551;-62
2022/09/27 08:03:33;;;;;;;0.77;0.67;;;;;;;10.55;100.00;95321.97;5027377;28;20207;-58
2022/09/27 08:06:03;;;;;;;0.93;0.70;;;;;;;10.73;100.00;95336.13;4974400;28;21610;-55
2022/09/27 08:08:31;;;;;;;0.50;0.50;;;;;;;11.18;100.00;95337.34;5024541;28;20209;-61
2022/09/27 08:11:00;;;;;;;0.70;0.60;;;;;;;11.23;100.00;95340.09;5021680;28;20830;-61
2022/09/27 08:13:28;;;;;;;1.67;1.57;;;;;;;11.52;100.00;95337.50;5025139;28;20223;-57
2022/09/27 08:16:02;;;;;;;1.20;1.07;;;;;;;11.71;97.45;95338.94;5004485;28;20616;-61
2022/09/27 08:18:30;;;;;;;1.20;0.70;;;;;;;11.71;94.71;95341.59;5025807;28;20430;-58
2022/09/27 08:20:58;;;;;;;0.63;0.57;;;;;;;11.29;92.92;95350.59;5021917;28;20529;-61
2022/09/27 08:23:26;;;;;;;0.80;0.80;;;;;;;11.07;96.74;95336.31;4977505;28;20211;-59
2022/09/27 08:25:56;;;;;;;1.20;0.70;;;;;;;11.05;94.84;95352.47;5020376;28;20215;-57
2022/09/27 08:28:26;;;;;;;0.67;0.67;;;;;;;10.60;100.00;95363.63;5026962;28;20212;-57
2022/09/27 08:30:54;;;;;;;0.60;0.60;;;;;;;10.54;97.94;95371.44;5008227;28;20898;-60
2022/09/27 08:33:24;;;;;;;0.67;0.67;;;;;;;10.58;98.46;95369.16;5025615;28;20781;-61
2022/09/27 08:35:59;;;;;;;0.70;0.70;;;;;;;10.71;98.68;95357.53;5021557;28;20854;-58
2022/09/27 08:38:27;;;;;;;0.50;0.50;;;;;;;10.69;95.85;95365.72;4981655;28;20234;-61
2022/09/27 08:40:57;;;;;;;0.73;0.73;;;;;;;10.83;97.46;95353.06;4990175;28;20226;-61
2022/09/27 08:43:36;;;;;;;1.23;1.00;;;;;;;10.93;95.07;95364.91;5014627;28;20298;-62
2022/09/27 08:46:11;;;;;;;2.43;2.23;;;;;;;11.21;96.37;95371.34;5002194;28;20833;-59
2022/09/27 08:48:39;;;;;;;0.80;0.70;;;;;;;10.99;94.55;95374.59;5024846;28;20315;-60
2022/09/27 08:51:11;;;;;;;1.33;0.83;;;;;;;11.00;96.00;95374.34;5006211;28;20592;-63
2022/09/27 08:53:42;;;;;;;0.60;0.60;;;;;;;11.04;95.32;95385.31;5028596;28;20713;-62
2022/09/27 08:56:11;;;;;;;1.03;0.73;;;;;;;11.16;94.30;95387.94;5023153;28;20500;-61
2022/09/27 08:58:45;;;;;;;0.73;0.73;;;;;;;11.34;91.72;95396.81;4976663;28;20216;-59
2022/09/27 09:01:14;;;;;;;0.70;0.70;;;;;;;11.26;89.97;95397.97;5026877;28;20808;-60
2022/09/27 09:03:46;;;;;;;1.10;1.07;;;;;;;11.36;88.40;95397.38;5027446;28;20296;-60
2022/09/27 09:06:18;;;;;;;0.90;0.90;;;;;;;11.27;87.71;95410.19;5008337;28;20231;-58
2022/09/27 09:08:56;;;;;;;0.70;0.70;;;;;;;10.92;85.45;95416.28;5030391;28;20207;-61
2022/09/27 09:14:51;;;;;;;0.60;0.60;;;;;;;10.87;85.89;95419.63;4978859;28;20214;-58
2022/09/27 09:17:26;;;;;;;0.93;0.80;;;;;;;11.10;85.25;95410.06;5029179;28;20200;-57
2022/09/27 09:20:11;;;;;;;0.77;0.77;;;;;;;11.07;84.70;95418.47;5014897;28;20229;-65
2022/09/27 09:22:53;;;;;;;0.73;0.73;;;;;;;11.25;83.73;95426.34;5027605;28;20211;-62
2022/09/27 09:25:29;;;;;;;0.57;0.57;;;;;;;11.47;80.68;95415.13;5031161;28;20430;-57
2022/09/27 09:28:07;;;;;;;1.90;0.80;;;;;;;11.62;79.14;95416.50;4988848;28;20199;-60
2022/09/27 09:30:42;;;;;;;0.83;0.83;;;;;;;11.33;80.79;95414.53;5026848;28;20319;-59
2022/09/27 09:33:16;;;;;;;0.83;0.83;;;;;;;10.93;83.76;95417.91;5027451;28;20211;-58
2022/09/27 09:35:47;;;;;;;0.93;0.93;;;;;;;11.11;85.74;95407.19;5029851;28;20263;-61
2022/09/27 09:38:20;;;;;;;4.10;1.00;;;;;;;11.26;83.54;95422.66;5012142;28;20300;-63
2022/09/27 09:40:52;;;;;;;1.00;1.00;;;;;;;11.62;81.87;95425.25;5028340;28;20580;-60
2022/09/27 09:43:25;;;;;;;1.83;1.00;;;;;;;11.79;79.35;95429.84;5024641;28;20296;-59
2022/09/27 09:45:57;;;;;;;0.90;0.90;;;;;;;11.78;80.08;95420.25;4983855;28;20727;-64
2022/09/27 09:48:32;;;;;;;0.70;0.70;;;;;;;11.78;78.68;95422.91;5029736;28;20228;-62
2022/09/27 09:51:02;;;;;;;0.53;0.53;;;;;;;11.71;77.76;95425.69;5025887;28;20191;-63
2022/09/27 09:53:39;;;;;;;0.90;0.90;;;;;;;11.62;78.51;95421.78;5016123;28;20215;-62
2022/09/27 09:56:12;;;;;;;1.03;1.03;;;;;;;11.46;79.54;95418.81;5022983;28;20290;-61
2022/09/27 09:58:44;;;;;;;0.60;0.60;;;;;;;11.21;78.62;95424.38;5025803;28;20199;-60
2022/09/27 10:01:19;;;;;;;0.80;0.80;;;;;;;11.07;80.84;95426.44;4989785;28;20319;-62
2022/09/27 10:03:47;;;;;;;1.10;0.77;;;;;;;10.85;81.11;95427.81;5027171;28;20207;-61
2022/09/27 10:06:16;;;;;;;0.93;0.80;;;;;;;10.77;82.35;95433.44;5028775;28;21034;-64
2022/09/27 10:08:46;;;;;;;1.47;1.43;;;;;;;10.95;82.77;95432.53;5011505;28;20239;-60
2022/09/27 10:11:20;;;;;;;0.70;0.70;;;;;;;10.84;82.07;95433.34;5022855;28;20317;-59
2022/09/27 10:13:48;;;;;;;0.60;0.60;;;;;;;10.92;82.44;95429.53;5032077;28;20720;-59
2022/09/27 10:16:20;;;;;;;0.87;0.67;;;;;;;11.55;79.54;95435.16;4979681;28;20775;-63
2022/09/27 10:18:49;;;;;;;0.60;0.60;;;;;;;12.06;78.16;95416.03;5022433;28;20212;-58
2022/09/27 10:21:20;;;;;;;0.60;0.60;;;;;;;11.72;76.48;95432.59;5024230;28;20385;-60
2022/09/27 10:24:10;;;;;;;0.70;0.70;;;;;;;11.71;76.86;95423.81;5006671;28;20239;-62
2022/09/27 10:26:45;;;;;;;1.33;0.70;;;;;;;11.53;77.95;95438.03;5027635;28;20284;-60
2022/09/27 10:29:25;;;;;;;0.93;0.90;;;;;;;11.64;79.69;95432.97;5023778;28;20328;-62
2022/09/27 10:31:55;;;;;;;0.90;0.90;;;;;;;11.58;78.30;95430.22;4976369;28;20597;-59
2022/09/27 10:34:31;;;;;;;1.10;0.90;;;;;;;11.47;79.06;95425.72;5023696;28;20261;-62
2022/09/27 10:37:21;;;;;;;0.80;0.80;;;;;;;11.20;79.26;95426.22;5023796;28;20199;-60
2022/09/27 10:39:52;;;;;;;0.97;0.97;;;;;;;11.36;81.02;95429.19;5003019;28;20211;-61
2022/09/27 10:42:22;;;;;;;1.03;1.03;;;;;;;11.53;80.93;95424.00;5027124;28;20816;-63
2022/09/27 10:44:50;;;;;;;1.33;1.07;;;;;;;11.55;82.69;95422.72;5026053;28;20235;-62
2022/09/27 10:47:21;;;;;;;1.20;0.80;;;;;;;12.25;79.89;95414.81;4984471;28;20734;-61
2022/09/27 10:49:51;;;;;;;0.67;0.67;;;;;;;12.82;75.18;95414.94;4970157;28;20738;-61
2022/09/27 10:52:21;;;;;;;0.63;0.63;;;;;;;12.63;71.37;95407.19;5025325;28;20486;-60
2022/09/27 10:54:55;;;;;;;0.70;0.70;;;;;;;12.23;72.42;95410.75;5032540;28;20220;-57
2022/09/27 10:57:24;;;;;;;0.70;0.70;;;;;;;11.92;73.23;95407.50;5025319;28;20208;-61
2022/09/27 10:59:54;;;;;;;0.97;0.90;;;;;;;11.70;73.89;95413.47;5024936;28;20218;-59
2022/09/27 11:02:27;;;;;;;1.13;0.87;;;;;;;12.00;74.71;95415.94;5025223;28;20717;-60
2022/09/27 11:05:14;;;;;;;0.67;0.67;;;;;;;12.08;74.68;95429.88;4973576;28;20240;-62
2022/09/27 11:07:49;;;;;;;0.90;0.90;;;;;;;11.61;72.35;95428.94;5006104;28;20226;-60
2022/09/27 11:10:24;;;;;;;0.70;0.70;;;;;;;11.65;72.77;95438.03;5025995;28;21090;-58
2022/09/27 11:13:09;;;;;;;1.60;0.70;;;;;;;11.44;72.25;95445.56;5012076;28;20213;-59
2022/09/27 11:15:48;;;;;;;0.70;0.70;;;;;;;11.05;73.67;95449.72;5024955;28;20816;-62
2022/09/27 11:18:24;;;;;;;0.70;0.70;;;;;;;10.76;74.15;95444.25;5025996;28;20203;-61
2022/09/27 11:20:56;;;;;;;2.57;1.03;;;;;;;10.83;74.39;95451.06;4974394;28;22213;-56
2022/09/27 11:23:35;;;;;;;0.63;0.63;;;;;;;11.06;75.04;95444.19;5022271;28;20646;-59
2022/09/27 11:26:15;;;;;;;0.57;0.57;;;;;;;10.54;81.62;95445.59;5025817;28;20227;-59
2022/09/27 11:28:50;;;;;;;1.43;0.90;;;;;;;10.06;90.30;95455.19;5011546;28;20211;-61
2022/09/27 11:31:26;;;;;;;0.73;0.73;;;;;;;9.49;100.00;95450.16;5023163;28;20202;-60
2022/09/27 11:34:20;;;;;;;0.90;0.87;;;;;;;9.47;100.00;95458.28;5027310;28;20422;-62
2022/09/27 11:37:01;;;;;;;1.50;0.70;;;;;;;10.33;100.00;95460.13;4978374;28;20212;-60
2022/09/27 11:39:33;;;;;;;0.87;0.87;;;;;;;10.70;100.00;95443.34;5019499;28;21090;-61
2022/09/27 11:42:15;;;;;;;0.70;0.70;;;;;;;10.99;100.00;95446.16;5026051;28;20235;-62
2022/09/27 11:44:57;;;;;;;0.97;0.97;;;;;;;11.25;100.00;95433.47;5003335;28;20875;-56
2022/09/27 11:47:51;;;;;;;0.70;0.70;;;;;;;10.82;94.16;95440.72;5021917;28;20196;-59
2022/09/27 11:50:44;;;;;;;0.87;0.87;;;;;;;9.96;100.00;95434.56;5022495;28;20203;-59
2022/09/27 11:53:25;;;;;;;0.90;0.90;;;;;;;9.76;100.00;95436.63;4976306;28;20207;-60
2022/09/27 11:56:00;;;;;;;0.90;0.90;;;;;;;10.33;100.00;95428.34;5019148;28;20223;-58
2022/09/27 11:58:36;;;;;;;0.73;0.73;;;;;;;10.06;100.00;95428.72;5021318;28;20671;-61
2022/09/27 12:01:12;;;;;;;1.10;1.10;;;;;;;10.71;100.00;95415.81;5007407;28;20214;-60